createdAt,value
2022-08-22T00:00:15.370Z,26.45
2022-08-22T00:03:00.667Z,28.26
2022-08-22T00:03:01.452Z,27.91
2022-08-22T00:03:02.257Z,28.29
2022-08-22T00:03:07.953Z,27.94
2022-08-22T00:05:54.793Z,26.43
2022-08-22T00:08:55.689Z,26.36
2022-08-22T00:11:37.678Z,26.31
2022-08-22T00:14:22.361Z,26.29
2022-08-22T00:17:04.703Z,26.22
2022-08-22T00:19:48.665Z,26.16
2022-08-22T00:22:30.077Z,26.19
2022-08-22T00:25:44.484Z,26.13
2022-08-22T00:28:17.833Z,26.12
2022-08-22T00:31:31.971Z,26.07
2022-08-22T00:34:07.132Z,26.02
2022-08-22T00:36:43.459Z,25.97
2022-08-22T00:39:25.405Z,25.99
2022-08-22T00:42:31.596Z,26.00
2022-08-22T00:45:22.678Z,25.96
2022-08-22T00:48:21.654Z,25.95
2022-08-22T00:50:51.016Z,25.95
2022-08-22T00:53:23.765Z,25.93
2022-08-22T00:56:07.280Z,25.90
2022-08-22T00:58:56.236Z,25.88
2022-08-22T01:01:31.402Z,25.89
2022-08-22T01:04:24.775Z,25.84
2022-08-22T01:07:09.419Z,25.82
2022-08-22T01:10:01.693Z,25.82
2022-08-22T01:12:49.937Z,25.78
2022-08-22T01:15:24.752Z,25.82
2022-08-22T01:18:32.675Z,25.78
2022-08-22T01:21:14.139Z,25.79
2022-08-22T01:23:58.804Z,25.78
2022-08-22T01:27:03.732Z,25.79
2022-08-22T01:29:30.323Z,25.81
2022-08-22T01:32:31.748Z,25.75
2022-08-22T01:35:34.086Z,25.78
2022-08-22T01:38:18.275Z,25.79
2022-08-22T01:40:56.958Z,25.79
2022-08-22T01:43:58.604Z,25.79
2022-08-22T01:46:54.535Z,25.75
2022-08-22T01:49:41.663Z,25.75
2022-08-22T01:52:19.471Z,25.71
2022-08-22T01:55:03.096Z,25.62
2022-08-22T01:57:29.804Z,25.54
2022-08-22T02:00:06.581Z,25.52
2022-08-22T02:03:10.902Z,25.54
2022-08-22T02:05:50.090Z,25.50
2022-08-22T02:08:27.420Z,25.50
2022-08-22T02:11:03.715Z,25.52
2022-08-22T02:13:36.320Z,25.48
2022-08-22T02:16:18.689Z,25.41
2022-08-22T02:19:31.156Z,25.33
2022-08-22T02:22:21.473Z,25.28
2022-08-22T02:25:12.504Z,25.24
2022-08-22T02:27:49.055Z,25.13
2022-08-22T02:30:20.324Z,25.16
2022-08-22T02:33:16.747Z,25.09
2022-08-22T02:36:00.142Z,25.06
2022-08-22T02:38:29.823Z,25.04
2022-08-22T02:41:16.508Z,25.10
2022-08-22T02:43:57.029Z,25.13
2022-08-22T02:46:49.682Z,25.17
2022-08-22T02:49:33.331Z,25.23
2022-08-22T02:52:17.242Z,25.19
2022-08-22T02:54:56.399Z,25.16
2022-08-22T02:58:01.037Z,25.19
2022-08-22T03:00:33.189Z,25.20
2022-08-22T03:03:02.813Z,25.17
2022-08-22T03:05:38.397Z,25.13
2022-08-22T03:08:09.546Z,25.12
2022-08-22T03:10:45.633Z,25.04
2022-08-22T03:13:25.767Z,25.04
2022-08-22T03:15:59.416Z,25.06
2022-08-22T03:19:13.309Z,25.07
2022-08-22T03:22:00.485Z,25.09
2022-08-22T03:24:56.978Z,25.14
2022-08-22T03:27:38.974Z,25.16
2022-08-22T03:30:10.212Z,25.19
2022-08-22T03:33:12.817Z,25.24
2022-08-22T03:35:57.356Z,25.28
2022-08-22T03:38:33.121Z,25.28
2022-08-22T03:41:38.585Z,25.30
2022-08-22T03:44:15.332Z,25.30
2022-08-22T03:47:19.550Z,25.30
2022-08-22T03:50:18.445Z,25.26
2022-08-22T03:53:18.717Z,25.24
2022-08-22T03:55:54.607Z,25.20
2022-08-22T03:58:48.763Z,25.17
2022-08-22T04:01:51.623Z,25.10
2022-08-22T04:04:24.003Z,25.02
2022-08-22T04:07:33.743Z,24.94
2022-08-22T04:10:26.486Z,24.94
2022-08-22T04:13:09.988Z,24.97
2022-08-22T04:16:14.157Z,24.96
2022-08-22T04:18:40.751Z,24.97
2022-08-22T04:21:29.120Z,24.99
2022-08-22T04:24:25.239Z,24.99
2022-08-22T04:26:58.115Z,24.96
2022-08-22T04:29:49.034Z,24.93
2022-08-22T04:32:36.331Z,24.89
2022-08-22T04:35:11.859Z,24.86
2022-08-22T04:37:53.620Z,24.79
2022-08-22T04:40:27.526Z,24.76
2022-08-22T04:43:00.607Z,24.75
2022-08-22T04:45:37.752Z,24.72
2022-08-22T04:48:21.060Z,24.69
2022-08-22T04:51:10.638Z,24.65
2022-08-22T04:53:51.081Z,24.64
2022-08-22T04:56:29.937Z,24.61
2022-08-22T04:59:11.691Z,24.59
2022-08-22T05:01:44.819Z,24.58
2022-08-22T05:04:22.896Z,24.56
2022-08-22T05:06:54.177Z,24.56
2022-08-22T05:09:28.879Z,24.59
2022-08-22T05:12:05.039Z,24.62
2022-08-22T05:14:40.318Z,24.64
2022-08-22T05:17:12.628Z,24.69
2022-08-22T05:19:50.685Z,24.71
2022-08-22T05:22:23.039Z,24.68
2022-08-22T05:24:59.029Z,24.71
2022-08-22T05:27:30.338Z,24.75
2022-08-22T05:30:22.363Z,24.72
2022-08-22T05:32:57.114Z,24.76
2022-08-22T05:35:37.707Z,24.76
2022-08-22T05:38:11.809Z,24.71
2022-08-22T05:40:39.210Z,24.66
2022-08-22T05:43:09.780Z,24.68
2022-08-22T05:45:38.818Z,24.68
2022-08-22T05:48:11.304Z,24.68
2022-08-22T05:51:19.115Z,24.75
2022-08-22T05:53:55.265Z,24.73
2022-08-22T05:56:37.576Z,24.68
2022-08-22T05:59:15.632Z,24.66
2022-08-22T06:02:13.777Z,24.72
2022-08-22T06:05:00.957Z,24.77
2022-08-22T06:07:37.621Z,24.82
2022-08-22T06:10:16.856Z,24.83
2022-08-22T06:12:54.290Z,24.86
2022-08-22T06:15:28.938Z,24.90
2022-08-22T06:18:05.289Z,24.92
2022-08-22T06:20:43.408Z,24.92
2022-08-22T06:23:15.864Z,24.92
2022-08-22T06:25:47.111Z,24.85
2022-08-22T06:28:21.407Z,24.82
2022-08-22T06:30:54.117Z,24.75
2022-08-22T06:33:28.700Z,24.71
2022-08-22T06:36:25.671Z,24.73
2022-08-22T06:39:05.759Z,24.75
2022-08-22T06:41:36.348Z,24.79
2022-08-22T06:44:05.857Z,24.86
2022-08-22T06:46:36.617Z,24.87
2022-08-22T06:49:06.711Z,24.92
2022-08-22T06:51:36.109Z,24.97
2022-08-22T06:54:07.984Z,25.00
2022-08-22T06:56:40.547Z,25.02
2022-08-22T06:59:13.490Z,25.00
2022-08-22T07:01:50.605Z,25.00
2022-08-22T07:04:21.198Z,25.04
2022-08-22T07:06:51.171Z,25.12
2022-08-22T07:09:26.878Z,25.13
2022-08-22T07:11:56.355Z,25.13
2022-08-22T07:14:30.184Z,25.21
2022-08-22T07:17:02.584Z,25.26
2022-08-22T07:19:40.981Z,25.30
2022-08-22T07:22:21.357Z,25.28
2022-08-22T07:24:53.602Z,25.27
2022-08-22T07:27:37.550Z,25.31
2022-08-22T07:30:13.096Z,25.44
2022-08-22T07:32:55.691Z,25.40
2022-08-22T07:35:43.929Z,25.44
2022-08-22T07:38:45.163Z,25.42
2022-08-22T07:41:14.521Z,25.48
2022-08-22T07:43:57.875Z,25.45
2022-08-22T07:46:41.794Z,25.47
2022-08-22T07:49:25.723Z,25.48
2022-08-22T07:52:06.089Z,25.48
2022-08-22T07:54:51.448Z,25.42
2022-08-22T07:57:23.880Z,25.42
2022-08-22T07:59:55.185Z,25.48
2022-08-22T08:02:24.184Z,25.52
2022-08-22T08:04:55.122Z,25.68
2022-08-22T08:07:26.548Z,25.84
2022-08-22T08:09:57.630Z,25.92
2022-08-22T08:12:41.665Z,26.02
2022-08-22T08:15:15.318Z,26.05
2022-08-22T08:17:44.559Z,26.09
2022-08-22T08:20:14.809Z,26.10
2022-08-22T08:22:45.000Z,26.23
2022-08-22T08:25:19.597Z,26.33
2022-08-22T08:28:05.061Z,26.36
2022-08-22T08:30:55.424Z,26.31
2022-08-22T08:33:26.719Z,26.31
2022-08-22T08:36:36.590Z,26.29
2022-08-22T08:39:14.918Z,26.23
2022-08-22T08:41:53.292Z,26.17
2022-08-22T08:44:35.869Z,26.10
2022-08-22T08:47:15.037Z,26.03
2022-08-22T08:49:53.504Z,25.97
2022-08-22T08:52:29.743Z,25.95
2022-08-22T08:55:21.971Z,25.92
2022-08-22T08:57:55.139Z,25.88
2022-08-22T09:00:23.402Z,25.84
2022-08-22T09:03:08.095Z,25.79
2022-08-22T09:05:43.493Z,25.78
2022-08-22T09:08:45.288Z,25.76
2022-08-22T09:11:28.475Z,25.69
2022-08-22T09:14:09.768Z,25.64
2022-08-22T09:16:51.281Z,25.57
2022-08-22T09:19:43.251Z,25.52
2022-08-22T09:25:28.681Z,25.44
2022-08-22T09:28:28.381Z,25.44
2022-08-22T09:31:44.806Z,25.41
2022-08-22T09:34:32.056Z,25.38
2022-08-22T09:37:21.729Z,25.40
2022-08-22T09:40:04.126Z,25.42
2022-08-22T09:43:01.814Z,25.52
2022-08-22T09:45:37.839Z,25.55
2022-08-22T09:48:33.770Z,25.61
2022-08-22T09:51:32.317Z,25.65
2022-08-22T09:54:14.337Z,25.72
2022-08-22T09:57:08.537Z,25.74
2022-08-22T09:59:42.789Z,25.78
2022-08-22T10:02:29.114Z,25.76
2022-08-22T10:05:44.049Z,25.78
2022-08-22T10:08:33.369Z,25.82
2022-08-22T10:11:26.455Z,25.86
2022-08-22T10:13:57.313Z,25.90
2022-08-22T10:16:49.540Z,25.90
2022-08-22T10:19:46.809Z,25.99
2022-08-22T10:22:39.087Z,26.13
2022-08-22T10:25:27.916Z,26.20
2022-08-22T10:28:14.900Z,26.31
2022-08-22T10:31:00.936Z,26.30
2022-08-22T10:33:38.151Z,26.27
2022-08-22T10:36:13.857Z,26.26
2022-08-22T10:38:49.812Z,26.26
2022-08-22T10:41:31.788Z,26.23
2022-08-22T10:44:14.786Z,26.24
2022-08-22T10:46:55.741Z,26.29
2022-08-22T10:49:51.296Z,26.31
2022-08-22T10:52:49.004Z,26.41
2022-08-22T10:55:24.603Z,26.50
2022-08-22T10:57:56.968Z,26.50
2022-08-22T11:00:46.441Z,26.47
2022-08-22T11:03:57.075Z,26.54
2022-08-22T11:06:46.660Z,26.65
2022-08-22T11:09:42.158Z,26.79
2022-08-22T11:12:19.279Z,26.87
2022-08-22T11:15:04.768Z,26.91
2022-08-22T11:17:59.635Z,26.91
2022-08-22T11:20:39.150Z,26.95
2022-08-22T11:23:28.181Z,27.03
2022-08-22T11:26:33.660Z,27.07
2022-08-22T11:29:41.159Z,27.20
2022-08-22T11:32:23.191Z,27.29
2022-08-22T11:35:01.669Z,27.39
2022-08-22T11:37:43.998Z,27.46
2022-08-22T11:40:37.913Z,27.47
2022-08-22T11:43:07.910Z,27.49
2022-08-22T11:45:48.945Z,27.43
2022-08-22T11:48:41.110Z,27.42
2022-08-22T11:51:40.968Z,27.46
2022-08-22T11:54:15.902Z,27.53
2022-08-22T11:57:07.483Z,27.53
2022-08-22T12:00:02.476Z,27.47
2022-08-22T12:02:57.935Z,27.53
2022-08-22T12:05:35.609Z,27.58
2022-08-22T12:08:08.049Z,27.67
2022-08-22T12:10:45.907Z,27.76
2022-08-22T12:13:49.348Z,27.82
2022-08-22T12:16:21.761Z,27.84
2022-08-22T12:19:01.800Z,27.84
2022-08-22T12:21:52.953Z,27.82
2022-08-22T12:24:38.295Z,27.76
2022-08-22T12:27:11.295Z,27.67
2022-08-22T12:29:59.746Z,27.55
2022-08-22T12:32:45.876Z,27.50
2022-08-22T12:35:29.972Z,27.49
2022-08-22T12:37:57.059Z,27.39
2022-08-22T12:40:32.749Z,27.39
2022-08-22T12:43:24.400Z,27.42
2022-08-22T12:46:05.847Z,27.40
2022-08-22T12:49:00.317Z,27.39
2022-08-22T12:51:55.854Z,27.37
2022-08-22T12:54:48.971Z,27.33
2022-08-22T12:57:54.084Z,27.27
2022-08-22T13:00:48.289Z,27.32
2022-08-22T13:03:37.111Z,27.26
2022-08-22T13:06:26.302Z,27.34
2022-08-22T13:08:54.589Z,27.39
2022-08-22T13:11:23.696Z,27.39
2022-08-22T13:14:00.395Z,27.43
2022-08-22T13:16:49.009Z,27.47
2022-08-22T13:19:22.336Z,27.53
2022-08-22T13:21:57.969Z,27.55
2022-08-22T13:24:55.238Z,27.57
2022-08-22T13:27:25.539Z,27.53
2022-08-22T13:30:00.981Z,27.50
2022-08-22T13:32:40.533Z,27.46
2022-08-22T13:35:32.539Z,27.37
2022-08-22T13:38:08.247Z,27.30
2022-08-22T13:40:44.246Z,27.25
2022-08-22T13:43:17.117Z,27.13
2022-08-22T13:45:56.053Z,27.10
2022-08-22T13:48:28.829Z,27.07
2022-08-22T13:51:08.113Z,27.10
2022-08-22T13:53:38.205Z,27.09
2022-08-22T13:56:15.900Z,27.10
2022-08-22T13:58:51.644Z,27.10
2022-08-22T14:01:37.956Z,27.13
2022-08-22T14:04:34.604Z,27.17
2022-08-22T14:07:02.456Z,27.26
2022-08-22T14:09:41.327Z,27.37
2022-08-22T14:12:20.954Z,27.44
2022-08-22T14:15:00.226Z,27.50
2022-08-22T14:17:42.806Z,27.54
2022-08-22T14:20:32.359Z,27.61
2022-08-22T14:23:06.923Z,27.67
2022-08-22T14:25:40.018Z,27.72
2022-08-22T14:28:11.175Z,27.76
2022-08-22T14:30:59.406Z,27.77
2022-08-22T14:33:48.135Z,27.77
2022-08-22T14:36:29.069Z,27.74
2022-08-22T14:39:01.953Z,27.71
2022-08-22T14:41:56.519Z,27.64
2022-08-22T14:44:52.076Z,27.57
2022-08-22T14:48:30.542Z,27.54
2022-08-22T14:51:04.031Z,27.50
2022-08-22T14:53:34.105Z,27.53
2022-08-22T14:56:15.015Z,27.51
2022-08-22T14:58:58.215Z,27.55
2022-08-22T15:01:29.360Z,27.51
2022-08-22T15:04:04.527Z,27.44
2022-08-22T15:06:48.174Z,27.30
2022-08-22T15:09:36.446Z,27.10
2022-08-22T15:12:39.746Z,26.96
2022-08-22T15:15:12.908Z,26.84
2022-08-22T15:17:46.643Z,26.77
2022-08-22T15:20:49.234Z,26.72
2022-08-22T15:23:24.327Z,26.79
2022-08-22T15:26:05.803Z,26.85
2022-08-22T15:28:53.143Z,26.88
2022-08-22T15:31:22.240Z,26.92
2022-08-22T15:33:50.350Z,26.95
2022-08-22T15:36:20.203Z,26.94
2022-08-22T15:38:48.428Z,26.98
2022-08-22T15:41:36.952Z,26.98
2022-08-22T15:44:32.360Z,27.00
2022-08-22T15:47:28.498Z,27.06
2022-08-22T15:50:02.202Z,27.07
2022-08-22T15:52:35.660Z,27.12
2022-08-22T15:55:17.528Z,27.16
2022-08-22T15:58:02.585Z,27.22
2022-08-22T16:00:34.444Z,27.25
2022-08-22T16:03:23.337Z,27.27
2022-08-22T16:06:00.057Z,27.27
2022-08-22T16:09:04.999Z,27.27
2022-08-22T16:11:34.870Z,27.29
2022-08-22T16:14:24.152Z,27.29
2022-08-22T16:16:51.575Z,27.30
2022-08-22T16:19:23.575Z,27.33
2022-08-22T16:22:02.696Z,27.30
2022-08-22T16:24:53.864Z,27.34
2022-08-22T16:27:25.783Z,27.36
2022-08-22T16:30:03.667Z,27.40
2022-08-22T16:32:30.363Z,27.43
2022-08-22T16:34:57.048Z,27.43
2022-08-22T16:37:35.291Z,27.42
2022-08-22T16:40:02.040Z,27.44
2022-08-22T16:42:39.007Z,27.43
2022-08-22T16:45:24.282Z,27.44
2022-08-22T16:47:58.155Z,27.44
2022-08-22T16:50:33.485Z,27.42
2022-08-22T16:53:20.301Z,27.39
2022-08-22T16:56:10.155Z,27.37
2022-08-22T16:58:58.927Z,27.36
2022-08-22T17:01:37.876Z,27.30
2022-08-22T17:04:32.444Z,27.33
2022-08-22T17:07:12.828Z,27.29
2022-08-22T17:10:03.520Z,27.26
2022-08-22T17:12:54.384Z,27.27
2022-08-22T17:15:35.891Z,27.22
2022-08-22T17:18:24.004Z,27.23
2022-08-22T17:21:19.600Z,27.20
2022-08-22T17:23:57.627Z,27.23
2022-08-22T17:26:36.531Z,27.25
2022-08-22T17:29:24.996Z,27.25
2022-08-22T17:31:55.733Z,27.19
2022-08-22T17:34:55.880Z,27.17
2022-08-22T17:37:30.773Z,27.15
2022-08-22T17:40:15.779Z,27.12
2022-08-22T17:42:58.902Z,27.12
2022-08-22T17:45:52.510Z,27.09
2022-08-22T17:48:25.640Z,27.09
2022-08-22T17:51:12.806Z,27.12
2022-08-22T17:53:48.268Z,27.10
2022-08-22T17:57:05.317Z,27.12
2022-08-22T17:59:56.409Z,27.06
2022-08-22T18:02:53.336Z,27.06
2022-08-22T18:05:22.674Z,26.98
2022-08-22T18:08:04.306Z,26.94
2022-08-22T18:10:38.404Z,26.94
2022-08-22T18:13:36.354Z,26.89
2022-08-22T18:16:14.057Z,26.92
2022-08-22T18:18:49.950Z,26.87
2022-08-22T18:21:50.734Z,26.85
2022-08-22T18:24:45.083Z,26.87
2022-08-22T18:27:34.554Z,26.82
2022-08-22T18:30:08.738Z,26.78
2022-08-22T18:33:00.599Z,26.79
2022-08-22T18:35:39.567Z,26.71
2022-08-22T18:38:26.561Z,26.71
2022-08-22T18:41:03.594Z,26.69
2022-08-22T18:43:39.821Z,26.68
2022-08-22T18:46:38.508Z,26.69
2022-08-22T18:49:19.757Z,26.72
2022-08-22T18:52:08.343Z,26.74
2022-08-22T18:54:43.914Z,26.72
2022-08-22T18:57:47.519Z,26.67
2022-08-22T19:00:18.694Z,26.65
2022-08-22T19:02:57.795Z,26.65
2022-08-22T19:06:00.490Z,26.64
2022-08-22T19:08:35.908Z,26.62
2022-08-22T19:11:35.135Z,26.57
2022-08-22T19:14:20.001Z,26.52
2022-08-22T19:16:56.771Z,26.52
2022-08-22T19:20:08.811Z,26.51
2022-08-22T19:22:36.650Z,26.51
2022-08-22T19:25:15.354Z,26.50
2022-08-22T19:28:06.909Z,26.47
2022-08-22T19:30:39.414Z,26.44
2022-08-22T19:33:13.195Z,26.43
2022-08-22T19:35:42.850Z,26.39
2022-08-22T19:38:11.532Z,26.40
2022-08-22T19:40:55.497Z,26.36
2022-08-22T19:43:30.870Z,26.33
2022-08-22T19:45:59.906Z,26.27
2022-08-22T19:48:43.298Z,26.24
2022-08-22T19:51:26.633Z,26.24
2022-08-22T19:53:55.938Z,26.24
2022-08-22T19:56:50.612Z,26.24
2022-08-22T19:59:20.592Z,26.23
2022-08-22T20:01:58.102Z,26.23
2022-08-22T20:04:41.643Z,26.27
2022-08-22T20:07:30.172Z,26.24
2022-08-22T20:10:04.430Z,26.24
2022-08-22T20:12:59.973Z,26.19
2022-08-22T20:15:29.875Z,26.16
2022-08-22T20:18:47.175Z,26.16
2022-08-22T20:20:59.893Z,26.16
2022-08-22T20:23:30.749Z,26.16
2022-08-22T20:25:58.393Z,26.14
2022-08-22T20:28:30.930Z,26.07
2022-08-22T20:31:01.568Z,26.05
2022-08-22T20:33:38.936Z,26.07
2022-08-22T20:36:16.608Z,26.07
2022-08-22T20:39:01.758Z,26.05
2022-08-22T20:41:33.598Z,26.05
2022-08-22T20:44:27.207Z,26.03
2022-08-22T20:47:12.223Z,26.03
2022-08-22T20:49:50.170Z,26.03
2022-08-22T20:52:19.599Z,26.00
2022-08-22T20:55:08.910Z,25.93
2022-08-22T20:57:45.624Z,25.92
2022-08-22T21:00:16.472Z,25.90
2022-08-22T21:03:05.378Z,25.90
2022-08-22T21:05:40.645Z,25.95
2022-08-22T21:08:19.382Z,25.95
2022-08-22T21:11:19.461Z,25.96
2022-08-22T21:13:46.567Z,25.90
2022-08-22T21:16:22.102Z,25.92
2022-08-22T21:18:53.945Z,25.88
2022-08-22T21:21:26.081Z,25.86
2022-08-22T21:24:00.361Z,25.84
2022-08-22T21:26:59.724Z,25.86
2022-08-22T21:29:33.852Z,25.88
2022-08-22T21:32:15.535Z,25.85
2022-08-22T21:34:48.766Z,25.86
2022-08-22T21:37:29.508Z,25.89
2022-08-22T21:40:08.467Z,25.79
2022-08-22T21:42:44.151Z,25.81
2022-08-22T21:45:28.625Z,25.81
2022-08-22T21:47:55.553Z,25.79
2022-08-22T21:50:24.744Z,25.79
2022-08-22T21:52:54.213Z,25.79
2022-08-22T21:55:35.680Z,25.82
2022-08-22T21:58:07.879Z,25.85
2022-08-22T22:00:51.654Z,25.86
2022-08-22T22:03:27.014Z,25.85
2022-08-22T22:05:58.594Z,25.79
2022-08-22T22:08:29.257Z,25.81
2022-08-22T22:11:03.342Z,25.82
2022-08-22T22:13:32.851Z,25.78
2022-08-22T22:15:59.970Z,25.76
2022-08-22T22:18:30.794Z,25.72
2022-08-22T22:20:57.804Z,25.75
2022-08-22T22:23:25.449Z,25.76
2022-08-22T22:25:54.678Z,25.76
2022-08-22T22:28:21.852Z,25.75
2022-08-22T22:30:51.461Z,25.72
2022-08-22T22:33:23.459Z,25.75
2022-08-22T22:35:51.736Z,25.75
2022-08-22T22:38:23.373Z,25.71
2022-08-22T22:40:51.422Z,25.69
2022-08-22T22:43:18.149Z,25.71
2022-08-22T22:45:44.979Z,25.71
2022-08-22T22:48:11.603Z,25.68
2022-08-22T22:50:44.416Z,25.65
2022-08-22T22:53:12.027Z,25.58
2022-08-22T22:56:00.145Z,25.59
2022-08-22T22:58:28.210Z,25.59
2022-08-22T23:00:55.323Z,25.52
2022-08-22T23:03:22.447Z,25.42
2022-08-22T23:05:49.100Z,25.45
2022-08-22T23:08:15.784Z,25.47
2022-08-22T23:10:42.448Z,25.47
2022-08-22T23:13:09.383Z,25.47
2022-08-22T23:15:37.196Z,25.48
2022-08-22T23:18:03.919Z,25.47
2022-08-22T23:20:30.614Z,25.45
2022-08-22T23:22:57.306Z,25.47
2022-08-22T23:25:23.967Z,25.45
2022-08-22T23:27:52.399Z,25.44
2022-08-22T23:30:25.219Z,25.40
2022-08-22T23:32:51.882Z,25.38
2022-08-22T23:35:18.564Z,25.41
2022-08-22T23:37:45.371Z,25.38
2022-08-22T23:40:12.978Z,25.33
2022-08-22T23:42:39.805Z,25.28
2022-08-22T23:45:06.897Z,25.30
2022-08-22T23:47:33.550Z,25.27
2022-08-22T23:50:05.815Z,25.19
2022-08-22T23:52:33.340Z,25.16
2022-08-22T23:54:59.987Z,25.13
2022-08-22T23:57:27.681Z,25.13
2022-08-22T23:59:57.316Z,25.16
